createdAt,value
2022-07-25T05:30:24.130Z,89.40
2022-07-25T05:32:51.389Z,88.10
2022-07-25T05:35:18.680Z,86.90
2022-07-25T05:37:46.221Z,85.10
2022-07-25T05:40:13.626Z,81.30
2022-07-25T05:42:40.858Z,80.00
2022-07-25T05:45:08.438Z,75.00
2022-07-25T05:47:35.780Z,71.60
2022-07-25T05:50:03.816Z,70.90
2022-07-25T05:52:31.207Z,70.50
2022-07-25T05:54:58.894Z,69.80
2022-07-25T05:57:26.472Z,69.00
2022-07-25T05:59:53.786Z,67.90
2022-07-25T06:02:21.145Z,64.60
2022-07-25T06:04:48.477Z,64.00
2022-07-25T06:07:17.225Z,63.80
2022-07-25T06:09:44.588Z,62.90
2022-07-25T06:12:11.948Z,62.40
2022-07-25T06:14:39.561Z,61.30
2022-07-25T06:17:06.815Z,60.10
2022-07-25T06:19:34.170Z,60.50
2022-07-25T06:22:02.012Z,62.40
2022-07-25T06:24:29.267Z,62.90
2022-07-25T06:26:56.504Z,61.90
2022-07-25T06:29:24.066Z,61.70
2022-07-25T06:31:51.301Z,62.00
2022-07-25T06:34:18.614Z,61.50
2022-07-25T06:36:46.170Z,62.80
2022-07-25T06:39:13.377Z,64.30
2022-07-25T06:41:40.650Z,62.30
2022-07-25T06:44:08.777Z,62.10
2022-07-25T06:46:36.270Z,61.60
2022-07-25T06:49:04.490Z,59.60
2022-07-25T06:51:31.816Z,59.60
2022-07-25T06:53:59.370Z,58.70
2022-07-25T06:56:30.984Z,58.30
2022-07-25T06:58:58.873Z,59.10
2022-07-25T07:01:34.190Z,58.10
2022-07-25T07:04:01.609Z,58.30
2022-07-25T07:06:29.085Z,57.40
2022-07-25T07:08:56.579Z,57.70
2022-07-25T07:11:24.816Z,57.90
2022-07-25T07:13:52.134Z,57.40
2022-07-25T07:16:20.463Z,57.50
2022-07-25T07:18:49.423Z,57.20
2022-07-25T07:21:21.146Z,57.00
2022-07-25T07:23:49.152Z,56.50
2022-07-25T07:26:21.544Z,55.80
2022-07-25T07:28:49.505Z,55.40
2022-07-25T07:31:18.392Z,55.80
2022-07-25T07:33:49.440Z,54.70
2022-07-25T07:36:17.500Z,56.00
2022-07-25T07:38:45.702Z,54.40
2022-07-25T07:41:13.420Z,54.40
2022-07-25T07:43:42.118Z,53.50
2022-07-25T07:46:09.519Z,53.40
2022-07-25T07:48:37.241Z,52.10
2022-07-25T07:51:05.191Z,53.00
2022-07-25T07:53:52.665Z,53.00
2022-07-25T07:56:20.431Z,51.90
2022-07-25T07:58:48.269Z,51.80
2022-07-25T08:01:15.540Z,51.70
2022-07-25T08:03:42.783Z,51.10
2022-07-25T08:06:10.279Z,51.60
2022-07-25T08:08:37.846Z,52.90
2022-07-25T08:11:05.340Z,51.20
2022-07-25T08:13:36.061Z,52.20
2022-07-25T08:16:04.364Z,51.60
2022-07-25T08:18:33.034Z,51.30
2022-07-25T08:21:06.444Z,51.90
2022-07-25T08:23:35.818Z,50.50
2022-07-25T08:26:04.069Z,50.20
2022-07-25T08:28:32.236Z,51.10
2022-07-25T08:30:59.636Z,50.90
2022-07-25T08:33:27.198Z,51.20
2022-07-25T08:35:55.895Z,50.20
2022-07-25T08:38:25.016Z,50.40
2022-07-25T08:40:54.731Z,50.10
2022-07-25T08:43:22.199Z,50.60
2022-07-25T08:45:52.205Z,51.10
2022-07-25T08:48:23.759Z,50.10
2022-07-25T08:50:52.032Z,50.00
2022-07-25T08:53:36.291Z,49.70
2022-07-25T08:56:11.579Z,49.50
2022-07-25T08:58:41.554Z,50.20
2022-07-25T09:01:09.477Z,49.40
2022-07-25T09:03:36.902Z,49.50
2022-07-25T09:06:16.564Z,48.40
2022-07-25T09:09:00.671Z,48.40
2022-07-25T09:14:09.246Z,49.10
2022-07-25T09:16:40.202Z,49.50
2022-07-25T09:19:11.388Z,48.60
2022-07-25T09:21:39.905Z,48.40
2022-07-25T09:24:16.111Z,48.00
2022-07-25T09:26:51.105Z,48.10
2022-07-25T09:29:22.120Z,47.90
2022-07-25T09:31:49.828Z,46.10
2022-07-25T09:34:38.180Z,46.50
2022-07-25T09:37:08.120Z,46.80
2022-07-25T09:42:24.797Z,46.30
2022-07-25T09:45:12.698Z,47.20
2022-07-25T09:48:01.452Z,45.80
2022-07-25T09:50:31.730Z,46.30
2022-07-25T09:53:02.626Z,46.90
2022-07-25T09:55:30.980Z,46.20
2022-07-25T09:57:58.689Z,46.10
2022-07-25T10:00:31.408Z,46.40
2022-07-25T10:03:26.111Z,46.10
2022-07-25T10:06:20.872Z,45.80
2022-07-25T10:08:51.000Z,46.40
2022-07-25T10:11:24.235Z,45.80
2022-07-25T10:13:54.326Z,46.00
2022-07-25T10:16:24.388Z,46.00
2022-07-25T10:18:54.570Z,45.80
2022-07-25T10:21:26.710Z,45.60
2022-07-25T10:24:07.470Z,45.70
2022-07-25T10:26:50.955Z,45.20
2022-07-25T10:29:18.667Z,45.50
2022-07-25T10:31:51.207Z,45.10
2022-07-25T10:34:32.173Z,45.80
2022-07-25T10:37:13.650Z,45.40
2022-07-25T10:39:44.912Z,45.60
2022-07-25T10:42:15.089Z,45.60
2022-07-25T10:44:52.134Z,46.00
2022-07-25T10:47:24.848Z,45.80
2022-07-25T10:50:25.609Z,45.50
2022-07-25T10:52:57.710Z,45.20
2022-07-25T10:55:26.092Z,45.90
2022-07-25T10:58:17.736Z,47.30
2022-07-25T11:00:45.623Z,44.70
2022-07-25T11:03:17.830Z,45.40
2022-07-25T11:05:47.704Z,44.80
2022-07-25T11:08:21.957Z,45.00
2022-07-25T11:10:52.455Z,45.20
2022-07-25T11:13:19.739Z,46.00
2022-07-25T11:15:47.129Z,46.40
2022-07-25T11:18:14.591Z,47.10
2022-07-25T11:20:41.947Z,47.50
2022-07-25T11:23:09.197Z,48.00
2022-07-25T11:25:36.406Z,48.50
2022-07-25T11:28:04.059Z,49.20
2022-07-25T11:30:32.453Z,48.80
2022-07-25T11:33:01.645Z,49.10
2022-07-25T11:35:31.375Z,48.30
2022-07-25T11:38:02.482Z,48.50
2022-07-25T11:40:32.602Z,48.60
2022-07-25T11:43:00.398Z,49.10
2022-07-25T11:45:30.496Z,49.20
2022-07-25T11:48:09.644Z,49.50
2022-07-25T11:50:39.362Z,48.50
2022-07-25T11:53:09.054Z,48.90
2022-07-25T11:55:42.832Z,49.20
2022-07-25T11:58:13.573Z,49.10
2022-07-25T12:00:47.589Z,49.40
2022-07-25T12:03:20.247Z,49.20
2022-07-25T12:05:49.376Z,49.20
2022-07-25T12:08:19.262Z,50.10
2022-07-25T12:10:48.433Z,50.20
2022-07-25T12:13:25.701Z,50.80
2022-07-25T12:15:53.965Z,51.40
2022-07-25T12:18:21.318Z,51.20
2022-07-25T12:20:48.544Z,51.30
2022-07-25T12:23:16.046Z,51.10
2022-07-25T12:25:45.496Z,50.60
2022-07-25T12:28:13.967Z,50.50
2022-07-25T12:30:44.429Z,51.20
2022-07-25T12:33:12.965Z,51.10
2022-07-25T12:35:41.577Z,51.10
2022-07-25T12:38:09.270Z,51.30
2022-07-25T12:40:36.926Z,51.70
2022-07-25T12:43:05.056Z,50.80
2022-07-25T12:45:32.477Z,50.70
2022-07-25T12:47:59.797Z,51.30
2022-07-25T12:50:27.099Z,50.40
2022-07-25T12:52:54.727Z,51.40
2022-07-25T12:55:22.726Z,51.20
2022-07-25T12:57:50.392Z,50.80
2022-07-25T13:00:20.444Z,50.70
2022-07-25T13:02:49.573Z,50.90
2022-07-25T13:05:17.725Z,50.60
2022-07-25T13:07:45.243Z,50.30
2022-07-25T13:10:12.745Z,50.80
2022-07-25T13:12:39.979Z,50.70
2022-07-25T13:15:07.992Z,50.90
2022-07-25T13:17:35.509Z,51.50
2022-07-25T13:20:03.710Z,51.70
2022-07-25T13:22:34.052Z,50.80
2022-07-25T13:25:01.352Z,50.00
2022-07-25T13:27:28.622Z,50.40
2022-07-25T13:29:56.186Z,50.20
2022-07-25T13:32:23.976Z,50.30
2022-07-25T13:34:51.510Z,50.60
2022-07-25T13:37:18.715Z,51.50
2022-07-25T13:39:45.979Z,51.60
2022-07-25T13:42:13.389Z,51.80
2022-07-25T13:44:40.645Z,52.30
2022-07-25T13:47:07.827Z,52.30
2022-07-25T13:49:36.852Z,52.70
2022-07-25T13:52:04.643Z,56.70
2022-07-25T13:54:32.169Z,55.20
2022-07-25T13:56:59.651Z,54.00
2022-07-25T13:59:26.941Z,53.50
2022-07-25T14:01:54.390Z,51.90
2022-07-25T14:04:22.834Z,52.10
2022-07-25T14:06:52.221Z,52.10
2022-07-25T14:09:21.092Z,51.30
2022-07-25T14:11:49.406Z,51.20
2022-07-25T14:14:17.454Z,51.40
2022-07-25T14:16:45.642Z,51.50
2022-07-25T14:19:13.126Z,51.70
2022-07-25T14:21:40.558Z,51.40
2022-07-25T14:24:08.270Z,51.60
2022-07-25T14:26:35.663Z,51.60
2022-07-25T14:29:03.995Z,52.00
2022-07-25T14:31:32.909Z,51.90
2022-07-25T14:34:00.522Z,51.60
2022-07-25T14:36:27.918Z,52.00
2022-07-25T14:38:55.380Z,52.10
2022-07-25T14:41:22.686Z,52.70
2022-07-25T14:43:49.941Z,52.80
2022-07-25T14:46:17.208Z,68.40
2022-07-25T14:48:45.525Z,70.40
2022-07-25T14:53:40.559Z,59.20
2022-07-25T14:56:08.428Z,60.10
2022-07-25T14:58:36.168Z,60.80
2022-07-25T15:01:03.734Z,60.70
2022-07-25T15:03:31.227Z,61.30
2022-07-25T15:05:58.496Z,61.70
2022-07-25T15:08:25.903Z,61.40
2022-07-25T15:10:53.113Z,60.60
2022-07-25T15:13:31.158Z,59.90
2022-07-25T15:15:59.773Z,59.60
2022-07-25T15:18:27.414Z,59.60
2022-07-25T15:20:55.319Z,58.80
2022-07-25T15:23:24.907Z,59.00
2022-07-25T15:26:08.677Z,57.80
2022-07-25T15:28:38.495Z,58.10
2022-07-25T15:31:06.556Z,68.80
2022-07-25T15:33:34.286Z,69.50
2022-07-25T15:36:01.545Z,57.90
2022-07-25T15:40:57.498Z,68.50
2022-07-25T15:43:25.992Z,68.80
2022-07-25T15:45:53.388Z,69.00
2022-07-25T15:48:20.669Z,68.00
2022-07-25T15:50:54.428Z,67.80
2022-07-25T15:53:22.211Z,66.90
2022-07-25T15:58:17.209Z,65.10
